Time;durP1;ratioP1;P1;durP2;ratioP2;P2;SDS_P1;SDS_P2;PMS_P1;PMS_P2;Temp;Humidity;BMP_temperature;BMP_pressure;BME280_temperature;BME280_humidity;BME280_pressure;Samples;Min_cycle;Max_cycle;Signal;HPM_P1;HPM_P2
2023/04/14 00:00:19;;;;;;;3.58;1.80;;;6.50;99.90;;;;;;5041517;28;20062;-32
2023/04/14 00:02:46;;;;;;;1.58;1.48;;;6.50;99.90;;;;;;5039484;28;20124;-35
2023/04/14 00:05:12;;;;;;;2.13;1.70;;;6.50;99.90;;;;;;5042537;28;20103;-33
2023/04/14 00:07:37;;;;;;;2.80;1.70;;;6.50;99.90;;;;;;5040677;28;20124;-32
2023/04/14 00:10:03;;;;;;;1.65;1.55;;;6.50;99.90;;;;;;5043766;28;20383;-33
2023/04/14 00:12:29;;;;;;;2.72;1.77;;;6.50;99.90;;;;;;5044375;28;20032;-33
2023/04/14 00:14:54;;;;;;;1.85;1.70;;;6.50;99.90;;;;;;5043917;28;20025;-33
2023/04/14 00:17:20;;;;;;;3.67;1.60;;;6.40;99.90;;;;;;5047823;28;20025;-32
2023/04/14 00:19:46;;;;;;;2.28;2.10;;;6.40;99.90;;;;;;5041357;28;20040;-32
2023/04/14 00:22:11;;;;;;;3.28;1.90;;;6.40;99.90;;;;;;5043942;28;20482;-32
2023/04/14 00:24:42;;;;;;;2.03;1.88;;;6.20;99.90;;;;;;5038011;28;20104;-32
2023/04/14 00:27:08;;;;;;;2.17;1.98;;;6.30;99.90;;;;;;5039919;28;20030;-32
2023/04/14 00:29:34;;;;;;;3.45;1.85;;;6.30;99.90;;;;;;5043294;28;20070;-32
2023/04/14 00:31:59;;;;;;;2.55;1.50;;;6.30;99.90;;;;;;5041102;28;20046;-32
2023/04/14 00:34:25;;;;;;;2.88;1.95;;;6.20;99.90;;;;;;5041338;28;20055;-32
2023/04/14 00:36:50;;;;;;;2.47;1.70;;;6.20;99.90;;;;;;5044247;28;20033;-32
2023/04/14 00:39:16;;;;;;;2.63;1.88;;;6.20;99.90;;;;;;5043030;28;20033;-32
2023/04/14 00:41:42;;;;;;;2.15;1.92;;;6.30;99.90;;;;;;5043301;28;20029;-32
2023/04/14 00:44:08;;;;;;;1.63;1.52;;;6.30;99.90;;;;;;5042978;28;20025;-32
2023/04/14 00:46:35;;;;;;;3.65;1.83;;;6.30;99.90;;;;;;5039748;28;20032;-32
2023/04/14 00:49:01;;;;;;;2.50;1.85;;;6.30;99.90;;;;;;5040264;28;20592;-32
2023/04/14 00:51:26;;;;;;;2.10;1.90;;;6.30;99.90;;;;;;5039535;28;20036;-32
2023/04/14 00:53:54;;;;;;;2.25;1.60;;;6.30;99.90;;;;;;5039928;28;20017;-32
2023/04/14 00:56:21;;;;;;;3.05;2.25;;;6.30;99.90;;;;;;5040831;28;20116;-33
2023/04/14 00:58:47;;;;;;;2.25;2.05;;;6.30;99.90;;;;;;5043936;28;20044;-33
2023/04/14 01:01:13;;;;;;;3.88;2.30;;;6.30;99.90;;;;;;5039660;28;20082;-32
2023/04/14 01:03:38;;;;;;;3.10;2.20;;;6.30;99.90;;;;;;5041575;28;20551;-33
2023/04/14 01:06:04;;;;;;;4.60;2.78;;;6.20;99.90;;;;;;5040433;28;20083;-32
2023/04/14 01:08:30;;;;;;;3.10;2.60;;;6.20;99.90;;;;;;5043592;28;20152;-32
2023/04/14 01:11:34;;;;;;;4.65;2.78;;;6.10;99.90;;;;;;5039756;28;20148;-32
2023/04/14 01:14:18;;;;;;;3.47;2.47;;;6.10;99.90;;;;;;5037875;28;20028;-32
2023/04/14 01:16:48;;;;;;;3.20;2.63;;;6.10;99.90;;;;;;5042330;28;20025;-32
2023/04/14 01:19:50;;;;;;;3.65;2.50;;;6.00;99.90;;;;;;5032877;28;20025;-32
2023/04/14 01:22:19;;;;;;;3.78;2.60;;;6.10;99.90;;;;;;5044799;28;20028;-32
2023/04/14 01:25:29;;;;;;;4.05;2.60;;;5.90;99.90;;;;;;5038707;28;20742;-32
2023/04/14 01:28:14;;;;;;;3.03;2.78;;;5.80;99.90;;;;;;5019307;28;20037;-32
2023/04/14 01:31:08;;;;;;;2.88;2.10;;;5.70;99.90;;;;;;5039120;28;20398;-31
2023/04/14 01:33:37;;;;;;;4.43;2.35;;;5.60;99.90;;;;;;5041415;28;20025;-31
2023/04/14 01:36:07;;;;;;;3.65;2.70;;;5.50;99.90;;;;;;5042295;28;20389;-32
2023/04/14 01:38:35;;;;;;;3.50;2.72;;;5.50;99.90;;;;;;5043860;28;20036;-31
2023/04/14 01:41:05;;;;;;;3.58;2.70;;;5.50;99.90;;;;;;5042107;28;20071;-32
2023/04/14 01:43:33;;;;;;;5.78;2.80;;;5.60;99.90;;;;;;5047333;28;20083;-32
2023/04/14 01:46:05;;;;;;;4.05;3.28;;;5.60;99.90;;;;;;5050198;28;20104;-32
2023/04/14 01:48:32;;;;;;;4.40;2.67;;;5.60;99.90;;;;;;5045778;28;20048;-32
2023/04/14 01:50:59;;;;;;;4.05;2.80;;;5.60;99.90;;;;;;5037854;28;20112;-32
2023/04/14 01:53:27;;;;;;;3.75;3.03;;;5.60;99.90;;;;;;5034455;28;20109;-32
2023/04/14 01:55:54;;;;;;;4.50;3.00;;;5.60;99.90;;;;;;5041773;28;20495;-32
2023/04/14 01:58:21;;;;;;;5.15;2.95;;;5.70;99.90;;;;;;5043159;28;20045;-32
2023/04/14 02:00:48;;;;;;;3.88;2.92;;;5.70;99.90;;;;;;5039920;28;20036;-32
2023/04/14 02:03:17;;;;;;;3.30;3.00;;;5.70;99.90;;;;;;5047562;28;20025;-32
2023/04/14 02:05:45;;;;;;;6.05;3.65;;;5.80;99.90;;;;;;5037743;28;20056;-32
2023/04/14 02:08:12;;;;;;;4.00;3.05;;;5.80;99.90;;;;;;5047510;28;20125;-32
2023/04/14 02:10:41;;;;;;;4.63;3.42;;;5.80;99.90;;;;;;5042208;28;20038;-33
2023/04/14 02:13:07;;;;;;;;;;;5.90;99.90;;;;;;5047031;28;20029;-33
2023/04/14 02:15:33;;;;;;;3.53;2.90;;;5.90;99.90;;;;;;5047143;28;19916;-32
2023/04/14 02:18:01;;;;;;;5.95;3.35;;;5.90;99.90;;;;;;5037812;28;20033;-32
2023/04/14 02:20:28;;;;;;;4.30;3.25;;;5.90;99.90;;;;;;5042526;28;20032;-32
2023/04/14 02:22:54;;;;;;;5.28;3.05;;;5.90;99.90;;;;;;5034936;28;20076;-32
2023/04/14 02:25:24;;;;;;;5.30;3.45;;;5.90;99.90;;;;;;5031869;28;20025;-33
2023/04/14 02:28:00;;;;;;;7.05;3.30;;;5.90;99.90;;;;;;5044556;28;20509;-32
2023/04/14 02:30:37;;;;;;;4.07;3.20;;;5.80;99.90;;;;;;5037790;28;20029;-32
2023/04/14 02:33:21;;;;;;;3.40;3.10;;;5.80;99.90;;;;;;5037203;28;20057;-32
2023/04/14 02:36:00;;;;;;;4.05;3.20;;;5.80;99.90;;;;;;5042512;28;20534;-32
2023/04/14 02:38:25;;;;;;;4.97;3.17;;;5.80;99.90;;;;;;5038993;28;20020;-32
2023/04/14 02:40:51;;;;;;;7.07;3.90;;;5.80;99.90;;;;;;5045498;28;20112;-32
2023/04/14 02:43:29;;;;;;;5.57;3.42;;;5.80;99.90;;;;;;5042846;28;20123;-32
2023/04/14 02:45:57;;;;;;;6.28;3.83;;;5.80;99.90;;;;;;5043027;28;20064;-32
2023/04/14 02:48:26;;;;;;;5.90;3.85;;;5.80;99.90;;;;;;5046824;28;20033;-32
2023/04/14 02:50:54;;;;;;;4.82;3.63;;;5.80;99.90;;;;;;5029933;28;20446;-32
2023/04/14 02:53:22;;;;;;;5.78;3.90;;;5.80;99.90;;;;;;5040336;28;20083;-32
2023/04/14 02:55:50;;;;;;;4.93;3.50;;;5.70;99.90;;;;;;5042170;28;20040;-32
2023/04/14 02:58:17;;;;;;;6.18;3.70;;;5.80;99.90;;;;;;5043196;28;20092;-32
2023/04/14 03:00:43;;;;;;;8.38;3.90;;;5.80;99.90;;;;;;5058430;28;20518;-32
2023/04/14 03:03:11;;;;;;;4.97;3.45;;;5.70;99.90;;;;;;5033223;28;20495;-32
2023/04/14 03:05:40;;;;;;;4.03;3.00;;;5.70;99.90;;;;;;5037984;28;20052;-32
2023/04/14 03:08:07;;;;;;;;;;;5.60;99.90;;;;;;5045497;28;20383;-32
2023/04/14 03:10:33;;;;;;;5.53;3.63;;;5.50;99.90;;;;;;5035562;28;19913;-32
2023/04/14 03:13:02;;;;;;;4.93;3.25;;;5.40;99.90;;;;;;5039243;28;20037;-32
2023/04/14 03:15:29;;;;;;;6.18;3.72;;;5.40;99.90;;;;;;5043057;28;20028;-32
2023/04/14 03:17:56;;;;;;;3.88;2.97;;;5.30;99.90;;;;;;5040618;28;20041;-33
2023/04/14 03:20:22;;;;;;;4.57;3.47;;;5.20;99.90;;;;;;5043182;28;20075;-33
2023/04/14 03:22:56;;;;;;;6.43;3.53;;;5.20;99.90;;;;;;5043821;28;20085;-31
2023/04/14 03:25:26;;;;;;;6.68;3.30;;;5.20;99.90;;;;;;5041652;28;20029;-32
2023/04/14 03:27:54;;;;;;;4.18;3.30;;;5.20;99.90;;;;;;5044456;28;20379;-32
2023/04/14 03:30:24;;;;;;;4.25;2.85;;;5.20;99.90;;;;;;5048722;28;20028;-32
2023/04/14 03:32:52;;;;;;;5.68;3.75;;;5.10;99.90;;;;;;5041810;28;20037;-32
2023/04/14 03:35:20;;;;;;;4.40;3.42;;;5.10;99.90;;;;;;5038154;28;20024;-32
2023/04/14 03:37:49;;;;;;;4.15;2.67;;;5.00;99.90;;;;;;5037314;28;20049;-32
2023/04/14 03:40:16;;;;;;;4.25;2.75;;;5.00;99.90;;;;;;5036787;28;20032;-32
2023/04/14 03:42:43;;;;;;;1.77;1.45;;;5.00;99.90;;;;;;5041905;28;20037;-32
2023/04/14 03:45:09;;;;;;;3.97;2.83;;;4.90;99.90;;;;;;5039941;28;20017;-32
2023/04/14 03:47:35;;;;;;;4.00;3.60;;;4.90;99.90;;;;;;5043638;28;20021;-32
2023/04/14 03:50:03;;;;;;;3.60;3.03;;;4.90;99.90;;;;;;5040277;28;20041;-32
2023/04/14 03:52:32;;;;;;;4.40;3.70;;;5.00;99.90;;;;;;5041242;28;20083;-32
2023/04/14 03:55:02;;;;;;;6.10;3.67;;;5.00;99.90;;;;;;5048180;28;20493;-32
2023/04/14 03:57:30;;;;;;;5.55;3.35;;;5.00;99.90;;;;;;5046248;28;20522;-32
2023/04/14 03:59:57;;;;;;;6.30;3.92;;;5.00;99.90;;;;;;5044447;28;20029;-32
2023/04/14 04:02:24;;;;;;;5.95;3.75;;;5.00;99.90;;;;;;5057034;28;20025;-32
2023/04/14 04:04:52;;;;;;;3.90;3.05;;;5.10;99.90;;;;;;5047068;28;20025;-32
2023/04/14 04:07:19;;;;;;;6.90;3.67;;;5.20;99.90;;;;;;5063197;28;20024;-32
2023/04/14 04:09:47;;;;;;;7.38;3.63;;;5.20;99.90;;;;;;5038068;28;20059;-32
2023/04/14 04:12:17;;;;;;;5.32;3.13;;;5.20;99.90;;;;;;5046619;28;20060;-32
2023/04/14 04:14:42;;;;;;;6.07;3.40;;;5.20;99.90;;;;;;5048685;28;20025;-33
2023/04/14 04:17:11;;;;;;;4.70;3.22;;;5.20;99.90;;;;;;5045560;28;20372;-32
2023/04/14 04:19:39;;;;;;;4.65;3.97;;;5.20;99.90;;;;;;5047441;28;20076;-31
2023/04/14 04:22:06;;;;;;;4.80;3.53;;;5.20;99.90;;;;;;5042435;28;20045;-32
2023/04/14 04:24:37;;;;;;;5.03;3.33;;;5.20;99.90;;;;;;5044170;28;20048;-33
2023/04/14 04:27:03;;;;;;;5.28;3.85;;;5.20;99.90;;;;;;5046135;28;20036;-32
2023/04/14 04:29:28;;;;;;;5.40;3.95;;;5.20;99.90;;;;;;5052805;28;20033;-32
2023/04/14 04:31:54;;;;;;;5.38;3.80;;;5.10;99.90;;;;;;5036985;28;20037;-33
2023/04/14 04:34:22;;;;;;;4.70;3.33;;;5.10;99.90;;;;;;5042277;28;20033;-32
2023/04/14 04:36:48;;;;;;;5.97;4.00;;;5.20;99.90;;;;;;5040697;28;20041;-32
2023/04/14 04:39:14;;;;;;;8.40;4.28;;;5.10;99.90;;;;;;5050796;28;20048;-32
2023/04/14 04:41:40;;;;;;;5.03;4.00;;;5.10;99.90;;;;;;5042990;28;20040;-32
2023/04/14 04:44:06;;;;;;;6.40;3.80;;;5.10;99.90;;;;;;5044227;28;20029;-32
2023/04/14 04:46:53;;;;;;;5.47;3.72;;;5.10;99.90;;;;;;5040514;28;20048;-32
2023/04/14 04:49:20;;;;;;;6.20;3.63;;;5.10;99.90;;;;;;5044165;28;20423;-33
2023/04/14 04:51:46;;;;;;;8.32;4.85;;;5.10;99.90;;;;;;5045955;28;20051;-32
2023/04/14 04:54:12;;;;;;;5.70;3.58;;;5.10;99.90;;;;;;5040798;28;20033;-33
2023/04/14 04:56:37;;;;;;;5.43;3.90;;;5.10;99.90;;;;;;5038668;28;20017;-32
2023/04/14 04:59:03;;;;;;;5.60;3.70;;;5.10;99.90;;;;;;5042143;28;20487;-32
2023/04/14 05:01:29;;;;;;;8.07;4.15;;;5.10;99.90;;;;;;5038535;28;20473;-32
2023/04/14 05:03:55;;;;;;;5.07;3.63;;;5.10;99.90;;;;;;5041641;28;20513;-32
2023/04/14 05:06:21;;;;;;;6.63;3.80;;;5.10;99.90;;;;;;5045428;28;20033;-32
2023/04/14 05:08:46;;;;;;;6.53;3.63;;;5.10;99.90;;;;;;5041827;28;20017;-32
2023/04/14 05:11:12;;;;;;;5.53;3.88;;;5.10;99.90;;;;;;5042984;28;20079;-32
2023/04/14 05:13:38;;;;;;;4.93;3.80;;;5.00;99.90;;;;;;5046884;28;20020;-33
2023/04/14 05:16:04;;;;;;;4.45;3.35;;;5.10;99.90;;;;;;5043703;28;20509;-32
2023/04/14 05:18:30;;;;;;;7.43;3.75;;;5.10;99.90;;;;;;5049512;28;20489;-33
2023/04/14 05:21:01;;;;;;;5.93;3.63;;;5.00;99.90;;;;;;5042792;28;20033;-32
2023/04/14 05:23:27;;;;;;;9.93;4.63;;;5.10;99.90;;;;;;5042323;28;20497;-32
2023/04/14 05:25:55;;;;;;;7.25;4.38;;;5.10;99.90;;;;;;5037055;28;20104;-33
2023/04/14 05:28:21;;;;;;;5.00;3.15;;;5.10;99.90;;;;;;5043953;28;20029;-33
2023/04/14 05:30:47;;;;;;;4.90;3.50;;;5.10;99.90;;;;;;5043586;28;20032;-32
2023/04/14 05:33:12;;;;;;;4.80;3.58;;;5.10;99.90;;;;;;5037459;28;20421;-32
2023/04/14 05:35:38;;;;;;;9.10;3.58;;;5.10;99.90;;;;;;5038319;28;20023;-32
2023/04/14 05:38:04;;;;;;;6.30;3.53;;;5.20;99.90;;;;;;5040232;28;20029;-32
2023/04/14 05:40:32;;;;;;;6.65;3.67;;;5.20;99.90;;;;;;5043211;28;20299;-32
2023/04/14 05:42:57;;;;;;;4.67;3.63;;;5.30;99.90;;;;;;5048117;28;20041;-33
2023/04/14 05:45:24;;;;;;;3.97;3.25;;;5.30;99.90;;;;;;5038259;28;20264;-33
2023/04/14 05:47:50;;;;;;;6.13;3.28;;;5.40;99.90;;;;;;5043571;28;20036;-34
2023/04/14 05:50:15;;;;;;;5.10;3.30;;;5.40;99.90;;;;;;5041118;28;20040;-32
2023/04/14 05:52:41;;;;;;;6.05;3.40;;;5.40;99.90;;;;;;5038074;28;20426;-32
2023/04/14 05:55:07;;;;;;;6.32;2.83;;;5.40;99.90;;;;;;5038035;28;20605;-32
2023/04/14 05:57:33;;;;;;;4.03;3.08;;;5.50;99.90;;;;;;5039802;28;20030;-32
2023/04/14 05:59:59;;;;;;;4.88;3.28;;;5.50;99.90;;;;;;5048093;28;20089;-32
2023/04/14 06:02:25;;;;;;;7.55;3.67;;;5.50;99.90;;;;;;5036777;28;20116;-32
2023/04/14 06:04:50;;;;;;;4.63;2.80;;;5.50;99.90;;;;;;5036668;28;20043;-33
2023/04/14 06:07:16;;;;;;;3.80;2.95;;;5.50;99.90;;;;;;5037919;28;20540;-32
2023/04/14 06:09:42;;;;;;;4.72;2.80;;;5.50;99.90;;;;;;5046743;28;20029;-33
2023/04/14 06:12:08;;;;;;;6.05;3.72;;;5.60;99.90;;;;;;5040979;28;20227;-33
2023/04/14 06:14:33;;;;;;;8.90;4.00;;;5.60;99.90;;;;;;5042269;28;20521;-33
2023/04/14 06:16:59;;;;;;;5.20;3.40;;;5.60;99.90;;;;;;5043994;28;20037;-32
2023/04/14 06:19:25;;;;;;;4.00;2.78;;;5.60;99.90;;;;;;5038487;28;20028;-32
2023/04/14 06:21:51;;;;;;;3.13;2.53;;;5.60;99.90;;;;;;5043950;28;20739;-33
2023/04/14 06:24:16;;;;;;;8.25;3.15;;;5.60;99.90;;;;;;5043324;28;20077;-32
2023/04/14 06:26:42;;;;;;;5.70;3.20;;;5.60;99.90;;;;;;5041305;28;20064;-33
2023/04/14 06:29:08;;;;;;;8.77;3.63;;;5.70;99.90;;;;;;5036858;28;20085;-32
2023/04/14 06:31:34;;;;;;;5.85;3.75;;;5.70;99.90;;;;;;5043168;28;20064;-33
2023/04/14 06:34:00;;;;;;;5.15;3.03;;;5.70;99.90;;;;;;5054001;28;20068;-32
2023/04/14 06:36:25;;;;;;;4.13;3.17;;;5.70;99.90;;;;;;5037554;28;20048;-32
2023/04/14 06:38:51;;;;;;;2.83;2.47;;;5.70;99.90;;;;;;5035688;28;20029;-32
2023/04/14 06:41:17;;;;;;;1.70;1.55;;;5.60;99.90;;;;;;5041319;28;20047;-32
2023/04/14 06:43:43;;;;;;;3.35;2.97;;;5.60;99.90;;;;;;5041790;28;20024;-32
2023/04/14 06:46:08;;;;;;;4.03;2.88;;;5.60;99.90;;;;;;5039393;28;20021;-32
2023/04/14 06:48:34;;;;;;;5.63;3.08;;;5.60;99.90;;;;;;5041307;28;20058;-32
2023/04/14 06:51:00;;;;;;;5.78;3.47;;;5.60;99.90;;;;;;5034491;28;20052;-32
2023/04/14 06:53:26;;;;;;;5.00;3.08;;;5.60;99.90;;;;;;5042646;28;20020;-33
2023/04/14 06:55:57;;;;;;;5.60;2.80;;;5.80;99.90;;;;;;5034259;28;20105;-32
2023/04/14 06:58:29;;;;;;;6.15;2.75;;;5.80;99.90;;;;;;5037974;28;20025;-32
2023/04/14 07:01:00;;;;;;;5.80;2.97;;;5.90;99.90;;;;;;5042072;28;20036;-33
2023/04/14 07:03:27;;;;;;;4.63;3.83;;;5.90;99.90;;;;;;5041320;28;20387;-33
2023/04/14 07:05:52;;;;;;;3.33;2.10;;;5.90;99.90;;;;;;5035848;28;20593;-32
2023/04/14 07:08:19;;;;;;;3.88;2.35;;;5.90;99.90;;;;;;5042516;28;20112;-31
2023/04/14 07:10:45;;;;;;;5.05;2.83;;;5.90;99.90;;;;;;5043295;28;20034;-32
2023/04/14 07:13:11;;;;;;;4.18;2.55;;;6.00;99.90;;;;;;5040057;28;20094;-32
2023/04/14 07:15:36;;;;;;;1.70;1.60;;;6.00;99.90;;;;;;5039927;28;20025;-32
2023/04/14 07:18:02;;;;;;;5.45;2.78;;;6.00;99.90;;;;;;5043312;28;20086;-32
2023/04/14 07:20:28;;;;;;;3.40;2.67;;;6.10;99.90;;;;;;5035138;28;20061;-32
2023/04/14 07:22:54;;;;;;;3.75;2.42;;;6.10;99.90;;;;;;5040207;28;20034;-33
2023/04/14 07:25:20;;;;;;;2.88;2.15;;;6.10;99.90;;;;;;5042225;28;20036;-32
2023/04/14 07:27:46;;;;;;;4.43;2.75;;;6.10;99.90;;;;;;5046472;28;20059;-33
2023/04/14 07:30:12;;;;;;;5.03;3.03;;;6.20;99.90;;;;;;5040195;28;20037;-32
2023/04/14 07:32:38;;;;;;;4.57;3.50;;;6.10;99.90;;;;;;5044582;28;20052;-33
2023/04/14 07:35:05;;;;;;;4.13;3.28;;;6.20;99.90;;;;;;5046489;28;20177;-32
2023/04/14 07:37:31;;;;;;;5.35;2.55;;;6.20;99.90;;;;;;5041833;28;20032;-32
2023/04/14 07:39:57;;;;;;;3.10;2.67;;;6.20;99.90;;;;;;5042698;28;20025;-32
2023/04/14 07:42:23;;;;;;;3.83;2.42;;;6.10;99.90;;;;;;5047027;28;20018;-32
2023/04/14 07:44:49;;;;;;;4.57;2.67;;;6.10;99.90;;;;;;5039494;28;20590;-32
2023/04/14 07:47:15;;;;;;;5.10;2.90;;;6.20;99.90;;;;;;5050750;28;20421;-32
2023/04/14 07:49:40;;;;;;;4.82;2.95;;;6.20;99.90;;;;;;5040198;28;20041;-31
2023/04/14 07:52:06;;;;;;;8.13;2.85;;;6.30;99.90;;;;;;5060218;28;20041;-32
2023/04/14 07:54:31;;;;;;;2.85;2.35;;;6.20;99.90;;;;;;5039168;28;20082;-32
2023/04/14 07:56:57;;;;;;;7.03;3.10;;;6.20;99.90;;;;;;5046885;28;20564;-35
2023/04/14 07:59:23;;;;;;;4.85;2.70;;;6.30;99.90;;;;;;5038582;28;20416;-34
2023/04/14 08:01:49;;;;;;;7.88;3.22;;;6.30;99.90;;;;;;5040496;28;20634;-33
2023/04/14 08:04:15;;;;;;;5.68;3.30;;;6.40;99.90;;;;;;5044708;28;20139;-32
2023/04/14 08:06:40;;;;;;;4.22;2.05;;;6.50;99.90;;;;;;5042384;28;20364;-32
2023/04/14 08:09:06;;;;;;;4.18;2.70;;;6.50;99.90;;;;;;5044384;28;20025;-32
2023/04/14 08:11:32;;;;;;;2.80;1.52;;;6.50;99.90;;;;;;5038563;28;20048;-32
2023/04/14 08:13:57;;;;;;;5.72;3.05;;;6.50;99.90;;;;;;5044702;28;20030;-32
2023/04/14 08:16:24;;;;;;;8.02;3.10;;;6.60;99.90;;;;;;5053096;28;20077;-32
2023/04/14 08:18:50;;;;;;;5.82;2.75;;;6.80;99.90;;;;;;5048057;28;20018;-32
2023/04/14 08:21:15;;;;;;;4.97;2.65;;;7.00;99.90;;;;;;5041964;28;20052;-32
2023/04/14 08:23:41;;;;;;;5.07;2.63;;;7.00;99.90;;;;;;5045524;28;20422;-32
2023/04/14 08:26:07;;;;;;;5.78;3.08;;;7.00;99.90;;;;;;5047462;28;20040;-32
2023/04/14 08:28:32;;;;;;;4.30;2.83;;;7.00;99.90;;;;;;5040672;28;20048;-33
2023/04/14 08:30:58;;;;;;;6.32;3.50;;;7.00;99.90;;;;;;5040600;28;20515;-32
2023/04/14 08:33:24;;;;;;;4.53;3.00;;;7.20;99.90;;;;;;5040258;28;20025;-32
2023/04/14 08:35:49;;;;;;;4.10;2.47;;;7.30;99.90;;;;;;5046404;28;20036;-33
2023/04/14 08:38:15;;;;;;;8.70;3.50;;;7.40;99.90;;;;;;5047910;28;20068;-33
2023/04/14 08:40:42;;;;;;;5.10;3.10;;;7.40;99.90;;;;;;5045047;28;20052;-32
2023/04/14 08:43:09;;;;;;;3.50;2.63;;;7.40;99.90;;;;;;5040877;28;20048;-32
2023/04/14 08:45:35;;;;;;;6.00;2.63;;;7.50;99.90;;;;;;5038233;28;20036;-33
2023/04/14 08:48:02;;;;;;;4.82;3.53;;;7.60;99.90;;;;;;5042555;28;20509;-32
2023/04/14 08:50:45;;;;;;;2.72;1.83;;;7.60;99.90;;;;;;5042976;28;20044;-43
2023/04/14 08:53:12;;;;;;;4.88;2.90;;;7.40;99.90;;;;;;5035831;28;20483;-43
2023/04/14 08:55:42;;;;;;;5.93;2.85;;;7.40;99.90;;;;;;5046830;28;20096;-43
2023/04/14 08:58:09;;;;;;;4.25;2.40;;;7.50;99.90;;;;;;5050649;28;20074;-43
2023/04/14 09:00:35;;;;;;;4.88;2.40;;;7.60;99.90;;;;;;5038158;28;20033;-42
2023/04/14 09:03:01;;;;;;;3.15;2.83;;;7.70;99.90;;;;;;5039902;28;20415;-43
2023/04/14 09:05:28;;;;;;;6.28;3.08;;;7.70;99.90;;;;;;5041798;28;20029;-43
2023/04/14 09:07:54;;;;;;;4.95;2.40;;;7.70;99.90;;;;;;5045999;28;20163;-43
2023/04/14 09:10:21;;;;;;;2.97;2.03;;;7.70;99.90;;;;;;5043109;28;20094;-43
2023/04/14 09:12:47;;;;;;;7.47;2.92;;;7.60;99.90;;;;;;5047281;28;20096;-43
2023/04/14 09:15:13;;;;;;;5.68;2.83;;;7.60;99.90;;;;;;5037584;28;20104;-43
2023/04/14 09:17:39;;;;;;;5.57;2.80;;;7.60;99.90;;;;;;5037708;28;20082;-43
2023/04/14 09:20:05;;;;;;;3.65;2.80;;;7.60;99.90;;;;;;5042524;28;20031;-43
2023/04/14 09:22:32;;;;;;;3.45;2.78;;;7.60;99.90;;;;;;5041206;28;20064;-43
2023/04/14 09:24:58;;;;;;;4.53;2.97;;;7.60;99.90;;;;;;5044384;28;20064;-43
2023/04/14 09:27:25;;;;;;;3.60;3.03;;;7.70;99.90;;;;;;5045750;28;20438;-43
2023/04/14 09:29:52;;;;;;;4.00;2.25;;;7.70;99.90;;;;;;5044008;28;20086;-43
2023/04/14 09:32:18;;;;;;;2.90;1.92;;;7.80;99.90;;;;;;5042016;28;20040;-43
2023/04/14 09:34:53;;;;;;;4.47;3.08;;;7.80;99.90;;;;;;5042098;28;20370;-43
2023/04/14 09:37:20;;;;;;;2.83;2.53;;;8.00;99.90;;;;;;5042828;28;20048;-43
2023/04/14 09:39:54;;;;;;;7.03;3.25;;;8.00;99.90;;;;;;5040124;28;20080;-43
2023/04/14 09:42:37;;;;;;;5.88;3.47;;;8.00;99.90;;;;;;5052559;28;20063;-43
2023/04/14 09:45:04;;;;;;;7.47;3.05;;;8.00;99.90;;;;;;5043275;28;20061;-43
2023/04/14 09:47:30;;;;;;;7.10;3.42;;;8.00;99.90;;;;;;5043916;28;20080;-43
2023/04/14 09:50:02;;;;;;;5.30;2.28;;;8.00;99.90;;;;;;5049191;28;20031;-43
2023/04/14 09:52:39;;;;;;;7.50;3.53;;;8.20;99.90;;;;;;5041960;28;20568;-43
2023/04/14 09:55:15;;;;;;;3.22;2.88;;;8.20;99.90;;;;;;5040489;28;20023;-42
2023/04/14 09:57:42;;;;;;;4.78;3.05;;;8.40;99.90;;;;;;5043670;28;20032;-42
2023/04/14 10:00:21;;;;;;;4.18;2.60;;;8.50;99.90;;;;;;5047587;28;20088;-42
2023/04/14 10:02:48;;;;;;;8.43;3.15;;;8.50;99.90;;;;;;5036956;28;20146;-42
2023/04/14 10:05:14;;;;;;;5.82;3.30;;;8.60;99.90;;;;;;5040543;28;20094;-42
2023/04/14 10:07:40;;;;;;;4.85;2.30;;;8.80;99.90;;;;;;5044919;28;20020;-42
2023/04/14 10:10:10;;;;;;;7.88;3.55;;;8.90;99.90;;;;;;5045456;28;20029;-41
2023/04/14 10:12:36;;;;;;;5.40;2.80;;;8.70;99.90;;;;;;5071432;28;20033;-41
2023/04/14 10:15:04;;;;;;;4.43;2.30;;;8.70;99.90;;;;;;5042359;28;20533;-41
2023/04/14 10:17:30;;;;;;;3.45;2.05;;;8.60;99.90;;;;;;5042714;28;20125;-41
2023/04/14 10:19:55;;;;;;;4.40;2.70;;;8.70;99.90;;;;;;5045834;28;20100;-41
2023/04/14 10:22:22;;;;;;;4.90;2.80;;;8.70;99.90;;;;;;5043340;28;20028;-40
2023/04/14 10:24:50;;;;;;;3.28;2.33;;;8.70;99.90;;;;;;5037144;28;20039;-40
2023/04/14 10:27:16;;;;;;;3.60;2.60;;;8.70;99.90;;;;;;5046475;28;20040;-41
2023/04/14 10:29:41;;;;;;;5.25;2.50;;;8.90;99.90;;;;;;5042179;28;20029;-40
2023/04/14 10:32:13;;;;;;;8.45;2.60;;;9.10;99.90;;;;;;5047399;28;20040;-40
2023/04/14 10:35:05;;;;;;;5.07;2.42;;;9.40;99.90;;;;;;5040814;28;20029;-40
2023/04/14 10:37:31;;;;;;;3.38;1.92;;;9.50;99.90;;;;;;5035888;28;20033;-41
2023/04/14 10:39:59;;;;;;;6.03;2.20;;;9.50;99.90;;;;;;5037386;28;20112;-41
2023/04/14 10:42:25;;;;;;;3.85;2.13;;;9.50;99.90;;;;;;5049650;28;20086;-40
2023/04/14 10:45:06;;;;;;;4.15;2.40;;;9.40;99.90;;;;;;5039930;28;20040;-40
2023/04/14 10:47:34;;;;;;;3.05;1.85;;;9.20;99.90;;;;;;5043505;28;20037;-41
2023/04/14 10:50:13;;;;;;;3.53;2.53;;;9.10;99.90;;;;;;5042564;28;20040;-40
2023/04/14 10:52:54;;;;;;;5.68;2.47;;;9.00;99.90;;;;;;5039923;28;20049;-41
2023/04/14 10:55:47;;;;;;;3.70;2.88;;;9.00;99.90;;;;;;5049147;28;20036;-40
2023/04/14 10:58:21;;;;;;;4.18;2.80;;;9.10;99.90;;;;;;5039058;28;20098;-40
2023/04/14 11:00:46;;;;;;;4.13;2.58;;;9.10;99.90;;;;;;5044738;28;20474;-41
2023/04/14 11:03:16;;;;;;;7.28;2.60;;;9.40;99.90;;;;;;5042687;28;20112;-41
2023/04/14 11:05:50;;;;;;;6.50;2.70;;;9.80;99.90;;;;;;5046006;28;20380;-41
2023/04/14 11:08:26;;;;;;;4.32;2.50;;;10.20;99.90;;;;;;5038799;28;20033;-40
2023/04/14 11:11:03;;;;;;;8.93;3.22;;;10.70;99.90;;;;;;5047242;28;20028;-40
2023/04/14 11:13:30;;;;;;;3.22;2.20;;;10.80;99.90;;;;;;5049224;28;20025;-40
2023/04/14 11:16:01;;;;;;;4.47;2.70;;;10.70;99.90;;;;;;5048522;28;20025;-40
2023/04/14 11:18:30;;;;;;;3.85;1.75;;;10.50;99.90;;;;;;5048644;28;20075;-41
2023/04/14 11:21:07;;;;;;;3.53;2.08;;;10.40;99.90;;;;;;5045895;28;20111;-40
2023/04/14 11:23:34;;;;;;;5.15;2.75;;;10.70;99.90;;;;;;5041176;28;20080;-41
2023/04/14 11:26:00;;;;;;;3.33;2.03;;;11.00;99.90;;;;;;5047385;28;20029;-41
2023/04/14 11:28:37;;;;;;;2.97;1.98;;;10.80;99.90;;;;;;5042960;28;20033;-40
2023/04/14 11:31:05;;;;;;;3.35;2.40;;;10.60;99.90;;;;;;5044284;28;20140;-41
2023/04/14 11:33:33;;;;;;;3.78;2.28;;;10.40;99.90;;;;;;5042714;28;21321;-40
2023/04/14 11:36:00;;;;;;;3.17;1.77;;;10.30;99.90;;;;;;5045072;28;20061;-41
2023/04/14 11:38:26;;;;;;;3.47;1.80;;;10.30;99.90;;;;;;5047218;28;20063;-41
2023/04/14 11:40:53;;;;;;;2.22;1.73;;;10.20;99.90;;;;;;5043724;28;20025;-41
2023/04/14 11:43:20;;;;;;;3.45;1.80;;;10.00;99.90;;;;;;5047517;28;20546;-41
2023/04/14 11:45:47;;;;;;;7.90;2.05;;;10.20;99.90;;;;;;5046433;28;20032;-41
2023/04/14 11:48:15;;;;;;;7.47;2.17;;;10.40;99.90;;;;;;5045470;28;20087;-41
2023/04/14 11:50:43;;;;;;;2.78;1.45;;;10.90;99.90;;;;;;5050628;28;20112;-40
2023/04/14 11:53:15;;;;;;;4.47;2.05;;;11.10;99.90;;;;;;5041953;28;20029;-40
2023/04/14 11:55:43;;;;;;;4.35;2.00;;;11.30;99.50;;;;;;5045690;28;20335;-40
2023/04/14 11:58:09;;;;;;;2.75;2.22;;;11.70;99.90;;;;;;5046060;28;20030;-40
2023/04/14 12:00:35;;;;;;;3.65;2.10;;;11.90;99.90;;;;;;5041265;28;20446;-41
2023/04/14 12:03:02;;;;;;;5.00;2.03;;;11.70;99.90;;;;;;5045667;28;20036;-41
2023/04/14 12:05:30;;;;;;;3.85;2.95;;;11.80;99.90;;;;;;5045154;28;20432;-40
2023/04/14 12:08:02;;;;;;;4.47;1.77;;;11.80;99.90;;;;;;5049885;28;20475;-40
2023/04/14 12:10:28;;;;;;;3.25;2.15;;;11.60;99.90;;;;;;5045313;28;20294;-40
2023/04/14 12:13:07;;;;;;;4.05;2.22;;;11.80;99.90;;;;;;5043755;28;20399;-40
2023/04/14 12:15:38;;;;;;;3.65;1.73;;;11.50;99.90;;;;;;5042946;28;20574;-40
2023/04/14 12:18:07;;;;;;;2.80;1.55;;;11.30;99.90;;;;;;5043644;28;20786;-40
2023/04/14 12:20:47;;;;;;;5.68;1.60;;;11.10;98.10;;;;;;5043607;28;20034;-40
2023/04/14 12:23:14;;;;;;;3.67;1.88;;;11.20;99.90;;;;;;5041286;28;20396;-41
2023/04/14 12:25:40;;;;;;;2.40;1.55;;;11.10;99.90;;;;;;5042071;28;20033;-40
2023/04/14 12:28:05;;;;;;;3.00;1.60;;;11.30;99.90;;;;;;5046834;28;20032;-40
2023/04/14 12:30:35;;;;;;;2.83;1.48;;;11.60;99.90;;;;;;5043440;28;20037;-41
2023/04/14 12:33:11;;;;;;;4.10;1.65;;;11.40;96.20;;;;;;5046572;28;20036;-41
2023/04/14 12:35:37;;;;;;;4.03;1.95;;;10.90;99.90;;;;;;5045979;28;20021;-41
2023/04/14 12:38:13;;;;;;;1.50;1.15;;;11.10;99.90;;;;;;5043625;28;20412;-40
2023/04/14 12:40:44;;;;;;;2.42;1.40;;;11.50;99.90;;;;;;5044459;28;20037;-40
2023/04/14 12:43:10;;;;;;;4.60;1.80;;;11.80;99.90;;;;;;5048484;28;20026;-40
2023/04/14 12:45:47;;;;;;;2.35;2.00;;;12.30;94.40;;;;;;5045933;28;20032;-40
2023/04/14 12:48:15;;;;;;;3.63;1.88;;;11.80;99.90;;;;;;5041471;28;20716;-40
2023/04/14 12:50:41;;;;;;;;;;;11.40;99.90;;;;;;5005125;28;1094868;-40
2023/04/14 12:53:27;;;;;;;5.95;2.17;;;10.80;99.90;;;;;;5045971;28;20267;-41
2023/04/14 12:56:08;;;;;;;6.28;2.03;;;10.20;99.90;;;;;;5044084;28;20378;-41
2023/04/14 12:58:35;;;;;;;5.03;2.60;;;10.10;99.90;;;;;;5041141;28;20111;-41
2023/04/14 13:01:01;;;;;;;2.13;1.60;;;9.90;99.90;;;;;;5044549;28;20522;-41